sensor_id;sensor_type;location;lat;lon;timestamp;P1;P2;P0
73687;PMS7003;62257;48.376;-4.378;2023-02-11T00:03:43;14.75;13.25;10.25
73687;PMS7003;62257;48.376;-4.378;2023-02-11T00:06:09;16.75;16.50;12.00
73687;PMS7003;62257;48.376;-4.378;2023-02-11T00:08:34;16.00;16.00;11.75
73687;PMS7003;62257;48.376;-4.378;2023-02-11T00:11:00;22.25;20.75;14.25
73687;PMS7003;62257;48.376;-4.378;2023-02-11T00:13:25;21.00;18.75;13.00
73687;PMS7003;62257;48.376;-4.378;2023-02-11T00:15:51;15.00;13.50;12.00
73687;PMS7003;62257;48.376;-4.378;2023-02-11T00:18:16;17.75;17.25;13.00
73687;PMS7003;62257;48.376;-4.378;2023-02-11T00:20:42;19.25;17.00;12.25
73687;PMS7003;62257;48.376;-4.378;2023-02-11T00:23:07;20.00;19.00;13.75
73687;PMS7003;62257;48.376;-4.378;2023-02-11T00:25:33;17.50;17.25;13.00
73687;PMS7003;62257;48.376;-4.378;2023-02-11T00:27:58;25.25;22.50;15.25
73687;PMS7003;62257;48.376;-4.378;2023-02-11T00:30:24;25.00;21.50;16.00
73687;PMS7003;62257;48.376;-4.378;2023-02-11T00:32:49;26.25;20.50;14.25
73687;PMS7003;62257;48.376;-4.378;2023-02-11T00:35:14;24.25;20.75;15.75
73687;PMS7003;62257;48.376;-4.378;2023-02-11T00:37:40;24.75;21.75;17.25
73687;PMS7003;62257;48.376;-4.378;2023-02-11T00:40:05;21.50;21.50;15.75
73687;PMS7003;62257;48.376;-4.378;2023-02-11T00:42:31;30.00;25.25;18.25
73687;PMS7003;62257;48.376;-4.378;2023-02-11T00:44:56;31.50;30.00;19.75
73687;PMS7003;62257;48.376;-4.378;2023-02-11T00:47:21;21.25;21.25;17.75
73687;PMS7003;62257;48.376;-4.378;2023-02-11T00:49:47;29.00;27.50;20.00
73687;PMS7003;62257;48.376;-4.378;2023-02-11T00:52:12;27.00;27.00;20.00
73687;PMS7003;62257;48.376;-4.378;2023-02-11T00:54:37;26.25;25.50;20.00
73687;PMS7003;62257;48.376;-4.378;2023-02-11T00:57:03;35.00;30.00;19.75
73687;PMS7003;62257;48.376;-4.378;2023-02-11T00:59:28;34.50;25.25;19.75
73687;PMS7003;62257;48.376;-4.378;2023-02-11T01:01:53;28.50;25.00;20.00
73687;PMS7003;62257;48.376;-4.378;2023-02-11T01:04:19;21.50;18.25;14.00
73687;PMS7003;62257;48.376;-4.378;2023-02-11T01:06:44;18.00;15.50;12.50
73687;PMS7003;62257;48.376;-4.378;2023-02-11T01:09:10;26.50;22.00;16.25
73687;PMS7003;62257;48.376;-4.378;2023-02-11T01:11:35;19.75;19.25;15.50
73687;PMS7003;62257;48.376;-4.378;2023-02-11T01:14:00;21.75;19.00;13.50
73687;PMS7003;62257;48.376;-4.378;2023-02-11T01:16:26;22.00;18.50;13.25
73687;PMS7003;62257;48.376;-4.378;2023-02-11T01:18:51;21.50;21.25;14.75
73687;PMS7003;62257;48.376;-4.378;2023-02-11T01:21:16;24.75;24.25;16.50
73687;PMS7003;62257;48.376;-4.378;2023-02-11T01:23:42;36.50;24.75;18.00
73687;PMS7003;62257;48.376;-4.378;2023-02-11T01:26:07;31.75;27.75;19.00
73687;PMS7003;62257;48.376;-4.378;2023-02-11T01:28:32;26.25;25.75;19.00
73687;PMS7003;62257;48.376;-4.378;2023-02-11T01:30:58;33.00;27.75;20.25
73687;PMS7003;62257;48.376;-4.378;2023-02-11T01:33:24;23.75;23.75;18.00
73687;PMS7003;62257;48.376;-4.378;2023-02-11T01:35:50;29.00;26.25;18.00
73687;PMS7003;62257;48.376;-4.378;2023-02-11T01:38:16;28.25;24.50;19.75
73687;PMS7003;62257;48.376;-4.378;2023-02-11T01:40:46;26.00;21.25;16.25
73687;PMS7003;62257;48.376;-4.378;2023-02-11T01:43:11;29.00;24.75;18.00
73687;PMS7003;62257;48.376;-4.378;2023-02-11T01:48:15;18.25;16.50;13.00
73687;PMS7003;62257;48.376;-4.378;2023-02-11T01:50:42;21.00;20.75;16.00
73687;PMS7003;62257;48.376;-4.378;2023-02-11T01:53:10;31.25;22.25;15.25
73687;PMS7003;62257;48.376;-4.378;2023-02-11T01:55:54;22.50;19.50;14.50
73687;PMS7003;62257;48.376;-4.378;2023-02-11T01:58:40;23.00;21.00;17.25
73687;PMS7003;62257;48.376;-4.378;2023-02-11T02:01:08;17.00;16.00;12.75
73687;PMS7003;62257;48.376;-4.378;2023-02-11T02:03:35;16.25;14.25;13.25
73687;PMS7003;62257;48.376;-4.378;2023-02-11T02:06:09;20.50;17.50;13.00
73687;PMS7003;62257;48.376;-4.378;2023-02-11T02:11:02;18.25;15.25;12.00
73687;PMS7003;62257;48.376;-4.378;2023-02-11T02:13:29;19.75;17.50;12.00
73687;PMS7003;62257;48.376;-4.378;2023-02-11T02:15:58;17.50;14.25;12.75
73687;PMS7003;62257;48.376;-4.378;2023-02-11T02:21:16;15.75;15.00;12.25
73687;PMS7003;62257;48.376;-4.378;2023-02-11T02:31:51;19.75;19.25;14.25
73687;PMS7003;62257;48.376;-4.378;2023-02-11T02:34:28;22.25;17.50;13.25
73687;PMS7003;62257;48.376;-4.378;2023-02-11T02:36:57;20.00;15.00;12.00
73687;PMS7003;62257;48.376;-4.378;2023-02-11T02:39:25;14.75;14.75;12.00
73687;PMS7003;62257;48.376;-4.378;2023-02-11T02:41:53;15.75;14.50;11.00
73687;PMS7003;62257;48.376;-4.378;2023-02-11T02:44:19;17.75;16.75;13.75
73687;PMS7003;62257;48.376;-4.378;2023-02-11T02:46:45;20.25;17.50;12.00
73687;PMS7003;62257;48.376;-4.378;2023-02-11T02:49:13;16.75;15.00;10.00
73687;PMS7003;62257;48.376;-4.378;2023-02-11T02:56:53;16.50;13.50;11.00
73687;PMS7003;62257;48.376;-4.378;2023-02-11T02:59:30;15.00;13.25;10.50
73687;PMS7003;62257;48.376;-4.378;2023-02-11T03:04:40;17.75;12.75;11.00
73687;PMS7003;62257;48.376;-4.378;2023-02-11T03:09:48;14.75;12.50;11.00
73687;PMS7003;62257;48.376;-4.378;2023-02-11T03:12:13;17.25;16.00;12.25
73687;PMS7003;62257;48.376;-4.378;2023-02-11T03:14:40;15.00;14.00;11.00
73687;PMS7003;62257;48.376;-4.378;2023-02-11T03:17:06;19.00;15.25;11.50
73687;PMS7003;62257;48.376;-4.378;2023-02-11T03:19:40;21.25;17.25;11.75
73687;PMS7003;62257;48.376;-4.378;2023-02-11T03:22:10;16.00;13.00;10.25
73687;PMS7003;62257;48.376;-4.378;2023-02-11T03:24:37;10.00;10.00;9.00
73687;PMS7003;62257;48.376;-4.378;2023-02-11T03:27:26;9.50;7.50;6.50
73687;PMS7003;62257;48.376;-4.378;2023-02-11T03:29:51;16.75;13.25;10.00
73687;PMS7003;62257;48.376;-4.378;2023-02-11T03:37:17;13.75;13.50;10.50
73687;PMS7003;62257;48.376;-4.378;2023-02-11T03:39:50;20.25;13.75;11.75
73687;PMS7003;62257;48.376;-4.378;2023-02-11T03:42:17;19.25;17.00;12.25
73687;PMS7003;62257;48.376;-4.378;2023-02-11T03:44:45;14.00;12.75;9.00
73687;PMS7003;62257;48.376;-4.378;2023-02-11T03:47:13;18.75;13.75;11.00
73687;PMS7003;62257;48.376;-4.378;2023-02-11T03:49:39;14.00;14.00;11.00
73687;PMS7003;62257;48.376;-4.378;2023-02-11T03:52:06;15.75;12.00;11.00
73687;PMS7003;62257;48.376;-4.378;2023-02-11T03:54:35;16.50;13.75;11.00
73687;PMS7003;62257;48.376;-4.378;2023-02-11T03:57:01;13.50;12.00;10.75
73687;PMS7003;62257;48.376;-4.378;2023-02-11T03:59:27;13.00;13.00;10.50
73687;PMS7003;62257;48.376;-4.378;2023-02-11T04:01:52;16.00;13.50;11.50
73687;PMS7003;62257;48.376;-4.378;2023-02-11T04:04:18;12.25;12.25;9.00
73687;PMS7003;62257;48.376;-4.378;2023-02-11T04:06:44;15.00;11.00;8.25
73687;PMS7003;62257;48.376;-4.378;2023-02-11T04:09:09;17.75;13.25;10.75
73687;PMS7003;62257;48.376;-4.378;2023-02-11T04:11:35;14.00;13.00;11.75
73687;PMS7003;62257;48.376;-4.378;2023-02-11T04:14:00;18.25;14.25;12.00
73687;PMS7003;62257;48.376;-4.378;2023-02-11T04:16:25;15.75;15.75;11.25
73687;PMS7003;62257;48.376;-4.378;2023-02-11T04:18:51;18.75;14.50;12.25
73687;PMS7003;62257;48.376;-4.378;2023-02-11T04:21:16;18.75;16.50;12.00
73687;PMS7003;62257;48.376;-4.378;2023-02-11T04:23:41;18.25;15.75;11.75
73687;PMS7003;62257;48.376;-4.378;2023-02-11T04:26:07;17.00;13.00;10.00
73687;PMS7003;62257;48.376;-4.378;2023-02-11T04:28:32;15.75;14.50;10.00
73687;PMS7003;62257;48.376;-4.378;2023-02-11T04:30:58;13.00;13.00;10.00
73687;PMS7003;62257;48.376;-4.378;2023-02-11T04:33:24;12.50;10.25;8.75
73687;PMS7003;62257;48.376;-4.378;2023-02-11T04:35:49;14.25;12.75;9.25
73687;PMS7003;62257;48.376;-4.378;2023-02-11T04:38:14;13.00;12.75;11.00
73687;PMS7003;62257;48.376;-4.378;2023-02-11T04:40:40;17.75;13.75;11.25
73687;PMS7003;62257;48.376;-4.378;2023-02-11T04:43:05;18.25;14.00;11.00
73687;PMS7003;62257;48.376;-4.378;2023-02-11T04:45:31;11.00;11.00;9.00
73687;PMS7003;62257;48.376;-4.378;2023-02-11T04:47:56;12.00;11.00;9.25
73687;PMS7003;62257;48.376;-4.378;2023-02-11T04:50:22;13.75;13.00;11.00
73687;PMS7003;62257;48.376;-4.378;2023-02-11T04:52:47;14.50;14.50;11.00
73687;PMS7003;62257;48.376;-4.378;2023-02-11T04:55:12;16.50;12.00;9.75
73687;PMS7003;62257;48.376;-4.378;2023-02-11T04:57:38;17.75;14.25;9.75
73687;PMS7003;62257;48.376;-4.378;2023-02-11T05:00:03;16.75;14.00;10.50
73687;PMS7003;62257;48.376;-4.378;2023-02-11T05:02:28;16.75;15.00;11.25
73687;PMS7003;62257;48.376;-4.378;2023-02-11T05:04:54;20.25;17.00;10.00
73687;PMS7003;62257;48.376;-4.378;2023-02-11T05:07:19;18.25;16.50;12.25
73687;PMS7003;62257;48.376;-4.378;2023-02-11T05:09:44;20.75;15.00;11.00
73687;PMS7003;62257;48.376;-4.378;2023-02-11T05:12:10;21.00;18.00;14.00
73687;PMS7003;62257;48.376;-4.378;2023-02-11T05:14:35;17.50;15.50;11.00
73687;PMS7003;62257;48.376;-4.378;2023-02-11T05:17:00;18.75;18.00;13.00
73687;PMS7003;62257;48.376;-4.378;2023-02-11T05:19:26;18.00;17.00;12.75
73687;PMS7003;62257;48.376;-4.378;2023-02-11T05:21:51;20.00;18.25;13.50
73687;PMS7003;62257;48.376;-4.378;2023-02-11T05:24:17;19.00;17.00;12.75
73687;PMS7003;62257;48.376;-4.378;2023-02-11T05:26:42;19.00;18.00;14.00
73687;PMS7003;62257;48.376;-4.378;2023-02-11T05:29:08;19.25;19.25;14.00
73687;PMS7003;62257;48.376;-4.378;2023-02-11T05:31:33;23.75;19.00;13.25
73687;PMS7003;62257;48.376;-4.378;2023-02-11T05:33:58;17.50;17.50;13.00
73687;PMS7003;62257;48.376;-4.378;2023-02-11T05:36:23;19.50;17.75;13.25
73687;PMS7003;62257;48.376;-4.378;2023-02-11T05:38:49;21.25;19.00;14.25
73687;PMS7003;62257;48.376;-4.378;2023-02-11T05:41:15;18.00;17.00;11.75
73687;PMS7003;62257;48.376;-4.378;2023-02-11T05:43:40;21.25;19.25;13.00
73687;PMS7003;62257;48.376;-4.378;2023-02-11T05:46:05;18.50;17.50;11.00
73687;PMS7003;62257;48.376;-4.378;2023-02-11T05:48:30;20.75;16.25;12.00
73687;PMS7003;62257;48.376;-4.378;2023-02-11T05:50:56;19.00;14.50;11.00
73687;PMS7003;62257;48.376;-4.378;2023-02-11T05:53:21;18.00;14.25;10.00
73687;PMS7003;62257;48.376;-4.378;2023-02-11T05:55:46;15.50;13.00;10.75
73687;PMS7003;62257;48.376;-4.378;2023-02-11T05:58:12;15.25;14.25;11.25
73687;PMS7003;62257;48.376;-4.378;2023-02-11T06:00:37;14.75;14.25;11.00
73687;PMS7003;62257;48.376;-4.378;2023-02-11T06:03:03;19.00;15.75;11.00
73687;PMS7003;62257;48.376;-4.378;2023-02-11T06:05:28;17.50;17.25;12.50
73687;PMS7003;62257;48.376;-4.378;2023-02-11T06:07:54;18.75;14.25;10.75
73687;PMS7003;62257;48.376;-4.378;2023-02-11T06:10:19;20.75;17.00;12.25
73687;PMS7003;62257;48.376;-4.378;2023-02-11T06:12:44;18.00;15.00;10.25
73687;PMS7003;62257;48.376;-4.378;2023-02-11T06:15:10;17.75;16.25;11.25
73687;PMS7003;62257;48.376;-4.378;2023-02-11T06:17:35;21.25;18.00;12.00
73687;PMS7003;62257;48.376;-4.378;2023-02-11T06:20:01;18.75;17.25;12.00
73687;PMS7003;62257;48.376;-4.378;2023-02-11T06:22:29;27.00;21.25;14.00
73687;PMS7003;62257;48.376;-4.378;2023-02-11T06:24:54;18.00;14.00;11.25
73687;PMS7003;62257;48.376;-4.378;2023-02-11T06:27:19;18.00;16.75;12.75
73687;PMS7003;62257;48.376;-4.378;2023-02-11T06:29:45;19.00;17.00;11.75
73687;PMS7003;62257;48.376;-4.378;2023-02-11T06:32:11;17.75;16.50;12.00
73687;PMS7003;62257;48.376;-4.378;2023-02-11T06:34:36;19.50;16.00;11.00
73687;PMS7003;62257;48.376;-4.378;2023-02-11T06:37:01;17.75;17.25;12.25
73687;PMS7003;62257;48.376;-4.378;2023-02-11T06:39:27;16.25;15.25;12.25
73687;PMS7003;62257;48.376;-4.378;2023-02-11T06:41:52;14.25;14.25;11.00
73687;PMS7003;62257;48.376;-4.378;2023-02-11T06:44:17;10.75;9.75;7.00
73687;PMS7003;62257;48.376;-4.378;2023-02-11T06:46:42;18.50;15.25;13.00
73687;PMS7003;62257;48.376;-4.378;2023-02-11T06:49:08;13.50;13.25;10.50
73687;PMS7003;62257;48.376;-4.378;2023-02-11T06:51:33;16.75;14.00;10.00
73687;PMS7003;62257;48.376;-4.378;2023-02-11T06:53:58;16.25;13.00;10.00
73687;PMS7003;62257;48.376;-4.378;2023-02-11T06:56:24;13.25;11.25;10.00
73687;PMS7003;62257;48.376;-4.378;2023-02-11T06:58:54;16.75;14.00;11.00
73687;PMS7003;62257;48.376;-4.378;2023-02-11T07:01:20;14.25;13.00;10.00
73687;PMS7003;62257;48.376;-4.378;2023-02-11T07:03:45;14.25;14.25;11.00
73687;PMS7003;62257;48.376;-4.378;2023-02-11T07:06:13;17.25;14.00;11.00
73687;PMS7003;62257;48.376;-4.378;2023-02-11T07:08:38;17.00;14.50;11.00
73687;PMS7003;62257;48.376;-4.378;2023-02-11T07:11:08;12.00;12.00;9.75
73687;PMS7003;62257;48.376;-4.378;2023-02-11T07:13:33;16.25;12.50;9.50
73687;PMS7003;62257;48.376;-4.378;2023-02-11T07:15:58;14.25;14.00;10.00
73687;PMS7003;62257;48.376;-4.378;2023-02-11T07:18:27;13.25;10.25;9.25
73687;PMS7003;62257;48.376;-4.378;2023-02-11T07:20:52;13.75;12.50;10.00
73687;PMS7003;62257;48.376;-4.378;2023-02-11T07:23:17;14.25;11.50;9.50
73687;PMS7003;62257;48.376;-4.378;2023-02-11T07:25:43;18.50;16.50;11.00
73687;PMS7003;62257;48.376;-4.378;2023-02-11T07:28:08;12.00;10.75;6.25
73687;PMS7003;62257;48.376;-4.378;2023-02-11T07:30:33;12.50;12.00;8.75
73687;PMS7003;62257;48.376;-4.378;2023-02-11T07:32:58;13.50;12.50;10.75
73687;PMS7003;62257;48.376;-4.378;2023-02-11T07:35:24;14.25;13.00;10.00
73687;PMS7003;62257;48.376;-4.378;2023-02-11T07:37:49;17.00;13.00;10.25
73687;PMS7003;62257;48.376;-4.378;2023-02-11T07:40:14;14.00;14.00;11.50
73687;PMS7003;62257;48.376;-4.378;2023-02-11T07:42:40;15.00;14.75;11.50
73687;PMS7003;62257;48.376;-4.378;2023-02-11T07:45:06;16.50;14.00;9.75
73687;PMS7003;62257;48.376;-4.378;2023-02-11T07:47:32;14.00;12.75;9.50
73687;PMS7003;62257;48.376;-4.378;2023-02-11T07:49:58;14.50;11.75;10.00
73687;PMS7003;62257;48.376;-4.378;2023-02-11T07:52:23;14.25;13.50;11.25
73687;PMS7003;62257;48.376;-4.378;2023-02-11T07:54:48;15.50;15.50;11.00
73687;PMS7003;62257;48.376;-4.378;2023-02-11T07:57:13;14.75;12.00;9.00
73687;PMS7003;62257;48.376;-4.378;2023-02-11T07:59:39;16.50;15.50;11.75
73687;PMS7003;62257;48.376;-4.378;2023-02-11T08:02:04;16.75;13.75;10.00
73687;PMS7003;62257;48.376;-4.378;2023-02-11T08:04:29;12.75;12.75;11.00
73687;PMS7003;62257;48.376;-4.378;2023-02-11T08:06:55;13.00;12.25;10.00
73687;PMS7003;62257;48.376;-4.378;2023-02-11T08:09:21;17.25;14.00;10.25
73687;PMS7003;62257;48.376;-4.378;2023-02-11T08:11:46;15.75;13.75;10.00
73687;PMS7003;62257;48.376;-4.378;2023-02-11T08:14:12;16.50;15.50;10.50
73687;PMS7003;62257;48.376;-4.378;2023-02-11T08:16:37;12.25;11.50;9.50
73687;PMS7003;62257;48.376;-4.378;2023-02-11T08:19:04;16.25;12.50;10.00
73687;PMS7003;62257;48.376;-4.378;2023-02-11T08:21:30;18.50;14.25;11.00
73687;PMS7003;62257;48.376;-4.378;2023-02-11T08:23:55;18.25;15.75;11.50
73687;PMS7003;62257;48.376;-4.378;2023-02-11T08:26:21;16.50;13.75;10.75
73687;PMS7003;62257;48.376;-4.378;2023-02-11T08:28:48;17.00;15.00;11.00
73687;PMS7003;62257;48.376;-4.378;2023-02-11T08:31:15;16.00;13.25;11.00
73687;PMS7003;62257;48.376;-4.378;2023-02-11T08:33:41;20.00;18.00;11.25
73687;PMS7003;62257;48.376;-4.378;2023-02-11T08:36:07;16.75;12.75;10.00
73687;PMS7003;62257;48.376;-4.378;2023-02-11T08:38:33;14.50;14.25;10.25
73687;PMS7003;62257;48.376;-4.378;2023-02-11T08:40:58;14.00;13.75;10.25
73687;PMS7003;62257;48.376;-4.378;2023-02-11T08:43:24;12.00;10.25;9.75
73687;PMS7003;62257;48.376;-4.378;2023-02-11T08:45:49;19.50;14.50;10.75
73687;PMS7003;62257;48.376;-4.378;2023-02-11T08:48:14;9.25;9.00;6.00
73687;PMS7003;62257;48.376;-4.378;2023-02-11T08:50:39;16.00;14.50;10.75
73687;PMS7003;62257;48.376;-4.378;2023-02-11T08:53:05;15.25;14.00;10.25
73687;PMS7003;62257;48.376;-4.378;2023-02-11T08:55:30;17.50;12.50;11.00
73687;PMS7003;62257;48.376;-4.378;2023-02-11T08:57:55;14.50;14.00;10.00
73687;PMS7003;62257;48.376;-4.378;2023-02-11T09:00:21;15.75;14.50;11.00
73687;PMS7003;62257;48.376;-4.378;2023-02-11T09:02:46;18.75;13.75;10.75
73687;PMS7003;62257;48.376;-4.378;2023-02-11T09:05:11;16.75;15.50;12.00
73687;PMS7003;62257;48.376;-4.378;2023-02-11T09:07:37;17.00;14.75;12.50
73687;PMS7003;62257;48.376;-4.378;2023-02-11T09:10:02;12.75;12.00;10.00
73687;PMS7003;62257;48.376;-4.378;2023-02-11T09:12:27;14.50;13.25;10.25
73687;PMS7003;62257;48.376;-4.378;2023-02-11T09:14:53;13.25;12.25;10.25
73687;PMS7003;62257;48.376;-4.378;2023-02-11T09:17:18;14.00;13.50;12.00
73687;PMS7003;62257;48.376;-4.378;2023-02-11T09:19:43;7.50;5.50;3.00
73687;PMS7003;62257;48.376;-4.378;2023-02-11T09:22:08;14.75;14.00;11.00
73687;PMS7003;62257;48.376;-4.378;2023-02-11T09:24:34;14.25;13.25;10.00
73687;PMS7003;62257;48.376;-4.378;2023-02-11T09:26:59;15.25;13.75;10.50
73687;PMS7003;62257;48.376;-4.378;2023-02-11T09:29:24;16.25;14.50;11.00
73687;PMS7003;62257;48.376;-4.378;2023-02-11T09:31:49;13.00;11.00;8.00
73687;PMS7003;62257;48.376;-4.378;2023-02-11T09:34:15;17.00;15.25;11.75
73687;PMS7003;62257;48.376;-4.378;2023-02-11T09:36:40;17.50;15.25;11.00
73687;PMS7003;62257;48.376;-4.378;2023-02-11T09:39:07;20.75;15.25;9.75
73687;PMS7003;62257;48.376;-4.378;2023-02-11T09:44:27;18.75;16.50;11.00
73687;PMS7003;62257;48.376;-4.378;2023-02-11T09:46:54;16.50;15.50;12.00
73687;PMS7003;62257;48.376;-4.378;2023-02-11T09:49:22;15.00;14.50;11.50
73687;PMS7003;62257;48.376;-4.378;2023-02-11T09:51:50;16.00;13.75;11.25
73687;PMS7003;62257;48.376;-4.378;2023-02-11T09:54:22;13.75;13.75;9.50
73687;PMS7003;62257;48.376;-4.378;2023-02-11T09:56:51;15.50;14.50;11.75
73687;PMS7003;62257;48.376;-4.378;2023-02-11T09:59:16;20.50;17.75;14.00
73687;PMS7003;62257;48.376;-4.378;2023-02-11T10:01:49;20.75;17.50;13.50
73687;PMS7003;62257;48.376;-4.378;2023-02-11T10:09:44;16.25;16.25;13.50
73687;PMS7003;62257;48.376;-4.378;2023-02-11T10:17:42;18.50;14.75;11.75
73687;PMS7003;62257;48.376;-4.378;2023-02-11T10:23:04;17.50;15.00;12.00
73687;PMS7003;62257;48.376;-4.378;2023-02-11T10:25:33;15.25;15.25;12.25
73687;PMS7003;62257;48.376;-4.378;2023-02-11T10:27:59;13.25;13.25;9.75
73687;PMS7003;62257;48.376;-4.378;2023-02-11T10:30:30;13.50;13.50;10.00
73687;PMS7003;62257;48.376;-4.378;2023-02-11T10:33:02;15.50;14.25;12.00
73687;PMS7003;62257;48.376;-4.378;2023-02-11T10:35:28;15.00;12.25;10.25
73687;PMS7003;62257;48.376;-4.378;2023-02-11T10:37:53;17.25;14.00;10.25
73687;PMS7003;62257;48.376;-4.378;2023-02-11T10:40:23;18.75;15.00;10.25
73687;PMS7003;62257;48.376;-4.378;2023-02-11T10:42:53;12.75;12.75;9.50
73687;PMS7003;62257;48.376;-4.378;2023-02-11T10:45:31;13.00;13.00;9.75
73687;PMS7003;62257;48.376;-4.378;2023-02-11T10:47:56;10.50;10.50;9.25
73687;PMS7003;62257;48.376;-4.378;2023-02-11T10:50:27;12.50;11.75;9.25
73687;PMS7003;62257;48.376;-4.378;2023-02-11T10:52:58;17.00;12.75;9.00
73687;PMS7003;62257;48.376;-4.378;2023-02-11T10:55:35;12.25;12.25;9.50
73687;PMS7003;62257;48.376;-4.378;2023-02-11T10:58:00;13.00;11.75;8.75
73687;PMS7003;62257;48.376;-4.378;2023-02-11T11:03:00;11.25;8.75;6.00
73687;PMS7003;62257;48.376;-4.378;2023-02-11T11:05:30;11.25;8.50;6.75
73687;PMS7003;62257;48.376;-4.378;2023-02-11T11:07:58;7.75;7.75;7.50
73687;PMS7003;62257;48.376;-4.378;2023-02-11T11:10:33;10.50;9.50;7.00
73687;PMS7003;62257;48.376;-4.378;2023-02-11T11:12:59;9.25;8.50;7.00
73687;PMS7003;62257;48.376;-4.378;2023-02-11T11:15:26;7.25;7.25;6.25
73687;PMS7003;62257;48.376;-4.378;2023-02-11T11:20:35;11.25;10.50;7.50
73687;PMS7003;62257;48.376;-4.378;2023-02-11T11:23:09;14.75;14.00;8.50
73687;PMS7003;62257;48.376;-4.378;2023-02-11T11:25:40;14.00;10.50;7.00
73687;PMS7003;62257;48.376;-4.378;2023-02-11T11:28:15;15.25;12.50;10.00
73687;PMS7003;62257;48.376;-4.378;2023-02-11T11:30:42;16.00;14.50;12.75
73687;PMS7003;62257;48.376;-4.378;2023-02-11T11:33:27;15.50;13.25;11.00
73687;PMS7003;62257;48.376;-4.378;2023-02-11T11:36:11;11.25;10.50;8.75
73687;PMS7003;62257;48.376;-4.378;2023-02-11T11:39:38;12.25;11.25;9.25
73687;PMS7003;62257;48.376;-4.378;2023-02-11T11:41:32;15.00;13.25;10.25
73687;PMS7003;62257;48.376;-4.378;2023-02-11T11:46:25;12.25;10.75;9.00
73687;PMS7003;62257;48.376;-4.378;2023-02-11T11:48:51;10.75;9.00;7.00
73687;PMS7003;62257;48.376;-4.378;2023-02-11T11:51:18;10.50;10.00;8.75
73687;PMS7003;62257;48.376;-4.378;2023-02-11T11:53:46;9.75;7.00;6.00
73687;PMS7003;62257;48.376;-4.378;2023-02-11T11:56:16;8.50;8.50;7.00
73687;PMS7003;62257;48.376;-4.378;2023-02-11T11:58:43;7.00;6.25;5.50
73687;PMS7003;62257;48.376;-4.378;2023-02-11T12:11:35;5.25;4.00;4.00
73687;PMS7003;62257;48.376;-4.378;2023-02-11T12:14:11;4.75;4.75;3.75
73687;PMS7003;62257;48.376;-4.378;2023-02-11T12:26:48;4.00;4.00;3.50
73687;PMS7003;62257;48.376;-4.378;2023-02-11T12:29:29;8.00;3.00;3.00
73687;PMS7003;62257;48.376;-4.378;2023-02-11T12:47:34;6.00;4.00;3.00
73687;PMS7003;62257;48.376;-4.378;2023-02-11T12:50:13;3.25;2.75;2.00
73687;PMS7003;62257;48.376;-4.378;2023-02-11T12:55:22;5.50;4.00;3.00
73687;PMS7003;62257;48.376;-4.378;2023-02-11T12:57:49;4.00;4.00;3.00
73687;PMS7003;62257;48.376;-4.378;2023-02-11T13:03:21;3.00;3.00;2.00
73687;PMS7003;62257;48.376;-4.378;2023-02-11T13:05:53;3.00;3.00;2.25
73687;PMS7003;62257;48.376;-4.378;2023-02-11T13:08:37;1.50;1.50;1.50
73687;PMS7003;62257;48.376;-4.378;2023-02-11T13:11:06;2.75;2.75;2.00
73687;PMS7003;62257;48.376;-4.378;2023-02-11T13:13:45;2.25;2.25;2.25
73687;PMS7003;62257;48.376;-4.378;2023-02-11T13:19:04;2.50;2.50;2.25
73687;PMS7003;62257;48.376;-4.378;2023-02-11T13:24:21;2.50;2.50;2.00
73687;PMS7003;62257;48.376;-4.378;2023-02-11T13:29:21;4.00;3.00;2.00
73687;PMS7003;62257;48.376;-4.378;2023-02-11T13:31:53;2.00;2.00;2.00
73687;PMS7003;62257;48.376;-4.378;2023-02-11T13:34:22;3.25;2.00;2.00
73687;PMS7003;62257;48.376;-4.378;2023-02-11T13:36:53;1.75;1.75;1.25
73687;PMS7003;62257;48.376;-4.378;2023-02-11T13:39:19;0.00;0.00;0.00
73687;PMS7003;62257;48.376;-4.378;2023-02-11T13:41:45;1.50;0.50;0.25
73687;PMS7003;62257;48.376;-4.378;2023-02-11T13:44:17;1.50;1.50;1.25
73687;PMS7003;62257;48.376;-4.378;2023-02-11T13:46:47;3.00;3.00;2.75
73687;PMS7003;62257;48.376;-4.378;2023-02-11T13:49:22;1.00;1.00;1.00
73687;PMS7003;62257;48.376;-4.378;2023-02-11T13:51:48;2.00;2.00;1.00
73687;PMS7003;62257;48.376;-4.378;2023-02-11T13:54:18;1.00;1.00;1.00
73687;PMS7003;62257;48.376;-4.378;2023-02-11T13:56:45;1.00;1.00;1.00
73687;PMS7003;62257;48.376;-4.378;2023-02-11T14:02:04;1.75;1.75;1.50
73687;PMS7003;62257;48.376;-4.378;2023-02-11T14:10:58;2.25;2.00;1.25
73687;PMS7003;62257;48.376;-4.378;2023-02-11T14:13:34;1.25;1.25;1.00
73687;PMS7003;62257;48.376;-4.378;2023-02-11T14:16:15;1.00;1.00;1.00
73687;PMS7003;62257;48.376;-4.378;2023-02-11T14:23:35;1.00;0.25;0.25
73687;PMS7003;62257;48.376;-4.378;2023-02-11T14:26:10;3.00;1.00;1.00
73687;PMS7003;62257;48.376;-4.378;2023-02-11T14:28:39;0.75;0.75;0.50
73687;PMS7003;62257;48.376;-4.378;2023-02-11T14:31:12;1.00;1.00;1.00
73687;PMS7003;62257;48.376;-4.378;2023-02-11T14:39:04;1.00;1.00;0.75
73687;PMS7003;62257;48.376;-4.378;2023-02-11T14:41:26;0.75;0.75;0.50
73687;PMS7003;62257;48.376;-4.378;2023-02-11T14:43:54;2.00;0.50;0.00
73687;PMS7003;62257;48.376;-4.378;2023-02-11T14:46:22;1.00;1.00;1.00
73687;PMS7003;62257;48.376;-4.378;2023-02-11T14:48:48;0.25;0.25;0.00
73687;PMS7003;62257;48.376;-4.378;2023-02-11T14:51:21;2.75;1.00;0.75
73687;PMS7003;62257;48.376;-4.378;2023-02-11T14:53:50;0.50;0.00;0.00
73687;PMS7003;62257;48.376;-4.378;2023-02-11T14:56:23;2.00;1.00;0.50
73687;PMS7003;62257;48.376;-4.378;2023-02-11T14:58:50;3.25;2.00;1.75
73687;PMS7003;62257;48.376;-4.378;2023-02-11T15:01:26;2.75;1.00;1.00
73687;PMS7003;62257;48.376;-4.378;2023-02-11T15:03:59;3.25;2.00;1.25
73687;PMS7003;62257;48.376;-4.378;2023-02-11T15:06:33;1.00;1.00;1.00
73687;PMS7003;62257;48.376;-4.378;2023-02-11T15:09:05;1.00;1.00;1.00
73687;PMS7003;62257;48.376;-4.378;2023-02-11T15:11:37;2.00;2.00;1.50
73687;PMS7003;62257;48.376;-4.378;2023-02-11T15:14:07;1.00;1.00;1.00
73687;PMS7003;62257;48.376;-4.378;2023-02-11T15:16:33;0.75;0.75;0.75
73687;PMS7003;62257;48.376;-4.378;2023-02-11T15:19:04;2.00;2.00;1.75
73687;PMS7003;62257;48.376;-4.378;2023-02-11T15:21:32;2.00;2.00;2.00
73687;PMS7003;62257;48.376;-4.378;2023-02-11T15:24:00;2.00;2.00;2.00
73687;PMS7003;62257;48.376;-4.378;2023-02-11T15:26:26;3.00;3.00;2.00
73687;PMS7003;62257;48.376;-4.378;2023-02-11T15:28:51;4.75;2.25;2.00
73687;PMS7003;62257;48.376;-4.378;2023-02-11T15:31:17;2.00;2.00;2.00
73687;PMS7003;62257;48.376;-4.378;2023-02-11T15:33:43;3.75;3.00;3.00
73687;PMS7003;62257;48.376;-4.378;2023-02-11T15:36:09;3.00;2.00;2.00
73687;PMS7003;62257;48.376;-4.378;2023-02-11T15:38:35;2.75;2.75;2.00
73687;PMS7003;62257;48.376;-4.378;2023-02-11T15:41:01;4.25;4.00;3.25
73687;PMS7003;62257;48.376;-4.378;2023-02-11T15:43:40;3.00;3.00;2.00
73687;PMS7003;62257;48.376;-4.378;2023-02-11T15:46:06;4.00;3.00;2.00
73687;PMS7003;62257;48.376;-4.378;2023-02-11T15:48:52;5.50;3.00;3.00
73687;PMS7003;62257;48.376;-4.378;2023-02-11T15:51:22;4.75;4.75;4.00
73687;PMS7003;62257;48.376;-4.378;2023-02-11T15:53:51;4.00;3.50;3.00